sensor_id;sensor_type;location;lat;lon;timestamp;pressure;altitude;pressure_sealevel;temperature;humidity
22605;BME280;11469;49.024;8.246;2022-12-07T00:00:40;100624.06;;;4.14;100.00
22605;BME280;11469;49.024;8.246;2022-12-07T00:03:06;100617.69;;;4.13;100.00
22605;BME280;11469;49.024;8.246;2022-12-07T00:05:31;100620.78;;;4.12;100.00
22605;BME280;11469;49.024;8.246;2022-12-07T00:07:56;100609.19;;;4.10;100.00
22605;BME280;11469;49.024;8.246;2022-12-07T00:10:22;100614.72;;;4.10;100.00
22605;BME280;11469;49.024;8.246;2022-12-07T00:12:47;100607.22;;;4.10;100.00
22605;BME280;11469;49.024;8.246;2022-12-07T00:15:12;100601.47;;;4.07;100.00
22605;BME280;11469;49.024;8.246;2022-12-07T00:17:38;100611.75;;;4.06;100.00
22605;BME280;11469;49.024;8.246;2022-12-07T00:20:04;100608.28;;;4.00;100.00
22605;BME280;11469;49.024;8.246;2022-12-07T00:22:29;100605.00;;;3.98;100.00
22605;BME280;11469;49.024;8.246;2022-12-07T00:24:55;100607.56;;;3.95;100.00
22605;BME280;11469;49.024;8.246;2022-12-07T00:27:20;100606.44;;;3.96;100.00
22605;BME280;11469;49.024;8.246;2022-12-07T00:29:45;100608.41;;;3.95;100.00
22605;BME280;11469;49.024;8.246;2022-12-07T00:32:11;100610.03;;;3.96;100.00
22605;BME280;11469;49.024;8.246;2022-12-07T00:34:36;100614.56;;;3.92;100.00
22605;BME280;11469;49.024;8.246;2022-12-07T00:37:02;100603.97;;;3.94;100.00
22605;BME280;11469;49.024;8.246;2022-12-07T00:39:27;100608.19;;;3.92;100.00
22605;BME280;11469;49.024;8.246;2022-12-07T00:41:52;100613.22;;;3.90;100.00
22605;BME280;11469;49.024;8.246;2022-12-07T00:44:18;100608.31;;;3.87;100.00
22605;BME280;11469;49.024;8.246;2022-12-07T00:46:43;100604.22;;;3.84;100.00
22605;BME280;11469;49.024;8.246;2022-12-07T00:49:10;100605.13;;;3.80;100.00
22605;BME280;11469;49.024;8.246;2022-12-07T00:51:36;100604.97;;;3.76;100.00
22605;BME280;11469;49.024;8.246;2022-12-07T00:54:01;100600.06;;;3.73;100.00
22605;BME280;11469;49.024;8.246;2022-12-07T00:56:28;100611.34;;;3.77;100.00
22605;BME280;11469;49.024;8.246;2022-12-07T00:59:01;100610.38;;;3.81;100.00
22605;BME280;11469;49.024;8.246;2022-12-07T01:01:29;100606.47;;;3.82;100.00
22605;BME280;11469;49.024;8.246;2022-12-07T01:03:55;100603.19;;;3.80;100.00
22605;BME280;11469;49.024;8.246;2022-12-07T01:06:22;100605.66;;;3.82;100.00
22605;BME280;11469;49.024;8.246;2022-12-07T01:08:48;100604.84;;;3.81;100.00
22605;BME280;11469;49.024;8.246;2022-12-07T01:11:17;100595.69;;;3.81;100.00
22605;BME280;11469;49.024;8.246;2022-12-07T01:13:42;100590.81;;;3.78;100.00
22605;BME280;11469;49.024;8.246;2022-12-07T01:16:11;100598.09;;;3.74;100.00
22605;BME280;11469;49.024;8.246;2022-12-07T01:18:38;100596.16;;;3.74;100.00
22605;BME280;11469;49.024;8.246;2022-12-07T01:21:10;100595.94;;;3.71;100.00
22605;BME280;11469;49.024;8.246;2022-12-07T01:23:36;100595.44;;;3.69;100.00
22605;BME280;11469;49.024;8.246;2022-12-07T01:26:04;100598.22;;;3.69;100.00
22605;BME280;11469;49.024;8.246;2022-12-07T01:28:30;100598.53;;;3.67;100.00
22605;BME280;11469;49.024;8.246;2022-12-07T01:31:04;100609.91;;;3.65;100.00
22605;BME280;11469;49.024;8.246;2022-12-07T01:33:32;100620.69;;;3.67;100.00
22605;BME280;11469;49.024;8.246;2022-12-07T01:38:34;100620.19;;;3.65;100.00
22605;BME280;11469;49.024;8.246;2022-12-07T01:41:00;100623.78;;;3.65;100.00
22605;BME280;11469;49.024;8.246;2022-12-07T01:43:28;100622.34;;;3.68;100.00
22605;BME280;11469;49.024;8.246;2022-12-07T01:45:54;100626.25;;;3.67;100.00
22605;BME280;11469;49.024;8.246;2022-12-07T01:48:27;100622.66;;;3.66;100.00
22605;BME280;11469;49.024;8.246;2022-12-07T01:50:56;100621.31;;;3.64;100.00
22605;BME280;11469;49.024;8.246;2022-12-07T01:53:24;100618.22;;;3.65;100.00
22605;BME280;11469;49.024;8.246;2022-12-07T01:55:52;100615.66;;;3.69;100.00
22605;BME280;11469;49.024;8.246;2022-12-07T01:58:18;100614.44;;;3.61;100.00
22605;BME280;11469;49.024;8.246;2022-12-07T02:00:45;100618.34;;;3.60;100.00
22605;BME280;11469;49.024;8.246;2022-12-07T02:03:22;100608.59;;;3.63;100.00
22605;BME280;11469;49.024;8.246;2022-12-07T02:05:49;100605.63;;;3.59;100.00
22605;BME280;11469;49.024;8.246;2022-12-07T02:08:16;100607.34;;;3.55;100.00
22605;BME280;11469;49.024;8.246;2022-12-07T02:10:42;100603.16;;;3.58;100.00
22605;BME280;11469;49.024;8.246;2022-12-07T02:13:35;100602.53;;;3.61;100.00
22605;BME280;11469;49.024;8.246;2022-12-07T02:19:23;100599.25;;;3.59;100.00
22605;BME280;11469;49.024;8.246;2022-12-07T02:22:31;100592.88;;;3.58;100.00
22605;BME280;11469;49.024;8.246;2022-12-07T02:25:09;100601.50;;;3.57;100.00
22605;BME280;11469;49.024;8.246;2022-12-07T02:30:19;100601.50;;;3.57;100.00
22605;BME280;11469;49.024;8.246;2022-12-07T02:35:32;100601.81;;;3.55;100.00
22605;BME280;11469;49.024;8.246;2022-12-07T02:38:19;100608.78;;;3.53;100.00
22605;BME280;11469;49.024;8.246;2022-12-07T02:40:55;100604.59;;;3.55;100.00
22605;BME280;11469;49.024;8.246;2022-12-07T02:43:30;100612.28;;;3.58;100.00
22605;BME280;11469;49.024;8.246;2022-12-07T02:46:03;100608.38;;;3.59;100.00
22605;BME280;11469;49.024;8.246;2022-12-07T02:48:31;100596.47;;;3.59;100.00
22605;BME280;11469;49.024;8.246;2022-12-07T02:50:58;100590.63;;;3.60;100.00
22605;BME280;11469;49.024;8.246;2022-12-07T02:53:41;100588.97;;;3.59;100.00
22605;BME280;11469;49.024;8.246;2022-12-07T03:10:05;100566.22;;;3.49;100.00
22605;BME280;11469;49.024;8.246;2022-12-07T03:12:41;100574.81;;;3.47;100.00
22605;BME280;11469;49.024;8.246;2022-12-07T03:15:15;100579.56;;;3.47;100.00
22605;BME280;11469;49.024;8.246;2022-12-07T03:17:44;100582.00;;;3.48;100.00
22605;BME280;11469;49.024;8.246;2022-12-07T03:20:20;100567.34;;;3.48;100.00
22605;BME280;11469;49.024;8.246;2022-12-07T03:22:47;100566.50;;;3.47;100.00
22605;BME280;11469;49.024;8.246;2022-12-07T03:25:15;100568.25;;;3.43;100.00
22605;BME280;11469;49.024;8.246;2022-12-07T03:27:54;100565.19;;;3.45;100.00
22605;BME280;11469;49.024;8.246;2022-12-07T03:30:24;100567.75;;;3.41;100.00
22605;BME280;11469;49.024;8.246;2022-12-07T03:35:31;100577.50;;;3.39;100.00
22605;BME280;11469;49.024;8.246;2022-12-07T03:38:22;100576.16;;;3.36;100.00
22605;BME280;11469;49.024;8.246;2022-12-07T03:40:55;100572.38;;;3.32;100.00
22605;BME280;11469;49.024;8.246;2022-12-07T03:43:24;100574.16;;;3.28;100.00
22605;BME280;11469;49.024;8.246;2022-12-07T03:52:06;100577.44;;;3.30;100.00
22605;BME280;11469;49.024;8.246;2022-12-07T03:55:08;100574.47;;;3.26;100.00
22605;BME280;11469;49.024;8.246;2022-12-07T03:57:34;100565.34;;;3.26;100.00
22605;BME280;11469;49.024;8.246;2022-12-07T04:00:05;100566.16;;;3.26;100.00
22605;BME280;11469;49.024;8.246;2022-12-07T04:02:31;100559.78;;;3.26;100.00
22605;BME280;11469;49.024;8.246;2022-12-07T04:04:58;100555.47;;;3.20;100.00
22605;BME280;11469;49.024;8.246;2022-12-07T04:07:23;100552.19;;;3.18;100.00
22605;BME280;11469;49.024;8.246;2022-12-07T04:09:49;100562.75;;;3.16;100.00
22605;BME280;11469;49.024;8.246;2022-12-07T04:12:14;100561.63;;;3.17;100.00
22605;BME280;11469;49.024;8.246;2022-12-07T04:14:39;100565.75;;;3.19;100.00
22605;BME280;11469;49.024;8.246;2022-12-07T04:17:05;100559.38;;;3.19;100.00
22605;BME280;11469;49.024;8.246;2022-12-07T04:19:32;100568.81;;;3.18;100.00
22605;BME280;11469;49.024;8.246;2022-12-07T04:22:00;100561.34;;;3.18;100.00
22605;BME280;11469;49.024;8.246;2022-12-07T04:24:25;100559.06;;;3.20;100.00
22605;BME280;11469;49.024;8.246;2022-12-07T04:26:51;100561.63;;;3.17;100.00
22605;BME280;11469;49.024;8.246;2022-12-07T04:29:17;100557.44;;;3.19;100.00
22605;BME280;11469;49.024;8.246;2022-12-07T04:31:43;100550.75;;;3.20;100.00
22605;BME280;11469;49.024;8.246;2022-12-07T04:34:08;100552.72;;;3.20;100.00
22605;BME280;11469;49.024;8.246;2022-12-07T04:36:35;100549.94;;;3.20;100.00
22605;BME280;11469;49.024;8.246;2022-12-07T04:39:00;100552.09;;;3.23;100.00
22605;BME280;11469;49.024;8.246;2022-12-07T04:41:26;100553.53;;;3.20;100.00
22605;BME280;11469;49.024;8.246;2022-12-07T04:43:59;100557.94;;;3.21;100.00
22605;BME280;11469;49.024;8.246;2022-12-07T04:46:27;100549.94;;;3.20;100.00
22605;BME280;11469;49.024;8.246;2022-12-07T04:48:53;100556.59;;;3.19;100.00
22605;BME280;11469;49.024;8.246;2022-12-07T04:51:21;100554.97;;;3.18;100.00
22605;BME280;11469;49.024;8.246;2022-12-07T04:53:47;100549.75;;;3.16;100.00
22605;BME280;11469;49.024;8.246;2022-12-07T04:56:14;100549.75;;;3.16;100.00
22605;BME280;11469;49.024;8.246;2022-12-07T04:58:41;100545.44;;;3.24;100.00
22605;BME280;11469;49.024;8.246;2022-12-07T05:01:06;100560.72;;;3.21;100.00
22605;BME280;11469;49.024;8.246;2022-12-07T05:03:32;100552.19;;;3.18;100.00
22605;BME280;11469;49.024;8.246;2022-12-07T05:05:57;100557.75;;;3.18;100.00
22605;BME280;11469;49.024;8.246;2022-12-07T05:08:23;100559.06;;;3.20;100.00
22605;BME280;11469;49.024;8.246;2022-12-07T05:10:49;100556.09;;;3.17;100.00
22605;BME280;11469;49.024;8.246;2022-12-07T05:13:15;100560.50;;;3.18;100.00
22605;BME280;11469;49.024;8.246;2022-12-07T05:15:40;100556.41;;;3.15;100.00
22605;BME280;11469;49.024;8.246;2022-12-07T05:18:07;100557.75;;;3.18;100.00
22605;BME280;11469;49.024;8.246;2022-12-07T05:20:34;100559.19;;;3.15;100.00
22605;BME280;11469;49.024;8.246;2022-12-07T05:22:59;100558.88;;;3.17;100.00
22605;BME280;11469;49.024;8.246;2022-12-07T05:25:25;100558.88;;;3.17;100.00
22605;BME280;11469;49.024;8.246;2022-12-07T05:27:50;100562.25;;;3.14;100.00
22605;BME280;11469;49.024;8.246;2022-12-07T05:30:16;100563.06;;;3.14;100.00
22605;BME280;11469;49.024;8.246;2022-12-07T05:32:41;100563.38;;;3.13;100.00
22605;BME280;11469;49.024;8.246;2022-12-07T05:35:07;100554.34;;;3.21;100.00
22605;BME280;11469;49.024;8.246;2022-12-07T05:37:33;100563.78;;;3.20;100.00
22605;BME280;11469;49.024;8.246;2022-12-07T05:39:58;100554.97;;;3.18;100.00
22605;BME280;11469;49.024;8.246;2022-12-07T05:42:23;100557.53;;;3.14;100.00
22605;BME280;11469;49.024;8.246;2022-12-07T05:44:49;100551.16;;;3.14;100.00
22605;BME280;11469;49.024;8.246;2022-12-07T05:47:15;100555.91;;;3.13;100.00
22605;BME280;11469;49.024;8.246;2022-12-07T05:49:40;100547.88;;;3.12;100.00
22605;BME280;11469;49.024;8.246;2022-12-07T05:52:06;100553.22;;;3.08;100.00
22605;BME280;11469;49.024;8.246;2022-12-07T05:54:31;100552.50;;;3.03;100.00
22605;BME280;11469;49.024;8.246;2022-12-07T05:56:57;100549.75;;;3.03;100.00
22605;BME280;11469;49.024;8.246;2022-12-07T05:59:22;100551.38;;;3.04;100.00
22605;BME280;11469;49.024;8.246;2022-12-07T06:02:07;100545.22;;;3.07;100.00
22605;BME280;11469;49.024;8.246;2022-12-07T06:04:33;100543.59;;;3.06;100.00
22605;BME280;11469;49.024;8.246;2022-12-07T06:06:59;100546.66;;;3.04;100.00
22605;BME280;11469;49.024;8.246;2022-12-07T06:09:26;100552.91;;;3.10;100.00
22605;BME280;11469;49.024;8.246;2022-12-07T06:11:53;100551.28;;;3.09;100.00
22605;BME280;11469;49.024;8.246;2022-12-07T06:14:36;100552.63;;;3.11;100.00
22605;BME280;11469;49.024;8.246;2022-12-07T06:17:02;100556.19;;;3.12;100.00
22605;BME280;11469;49.024;8.246;2022-12-07T06:19:27;100552.91;;;3.10;100.00
22605;BME280;11469;49.024;8.246;2022-12-07T06:21:53;100563.28;;;3.04;100.00
22605;BME280;11469;49.024;8.246;2022-12-07T06:24:19;100554.88;;;3.09;100.00
22605;BME280;11469;49.024;8.246;2022-12-07T06:26:45;100568.81;;;3.04;100.00
22605;BME280;11469;49.024;8.246;2022-12-07T06:29:11;100567.16;;;3.03;100.00
22605;BME280;11469;49.024;8.246;2022-12-07T06:31:37;100560.91;;;3.11;100.00
22605;BME280;11469;49.024;8.246;2022-12-07T06:34:10;100565.63;;;3.11;100.00
22605;BME280;11469;49.024;8.246;2022-12-07T06:36:36;100561.53;;;3.08;100.00
22605;BME280;11469;49.024;8.246;2022-12-07T06:39:01;100564.31;;;3.08;100.00
22605;BME280;11469;49.024;8.246;2022-12-07T06:41:27;100566.25;;;3.08;100.00
22605;BME280;11469;49.024;8.246;2022-12-07T06:43:52;100564.81;;;3.10;100.00
22605;BME280;11469;49.024;8.246;2022-12-07T06:46:18;100563.19;;;3.09;100.00
22605;BME280;11469;49.024;8.246;2022-12-07T06:48:43;100562.03;;;3.10;100.00
22605;BME280;11469;49.024;8.246;2022-12-07T06:51:09;100565.34;;;3.12;100.00
22605;BME280;11469;49.024;8.246;2022-12-07T06:53:35;100564.50;;;3.12;100.00
22605;BME280;11469;49.024;8.246;2022-12-07T06:56:01;100566.97;;;3.13;100.00
22605;BME280;11469;49.024;8.246;2022-12-07T06:58:27;100563.38;;;3.13;100.00
22605;BME280;11469;49.024;8.246;2022-12-07T07:00:53;100557.84;;;3.13;100.00
22605;BME280;11469;49.024;8.246;2022-12-07T07:03:19;100558.34;;;3.15;100.00
22605;BME280;11469;49.024;8.246;2022-12-07T07:05:44;100568.31;;;3.16;100.00
22605;BME280;11469;49.024;8.246;2022-12-07T07:08:10;100568.00;;;3.17;100.00
22605;BME280;11469;49.024;8.246;2022-12-07T07:10:36;100562.47;;;3.17;100.00
22605;BME280;11469;49.024;8.246;2022-12-07T07:13:02;100563.06;;;3.14;100.00
22605;BME280;11469;49.024;8.246;2022-12-07T07:15:27;100561.75;;;3.12;100.00
22605;BME280;11469;49.024;8.246;2022-12-07T07:17:53;100564.00;;;3.10;100.00
22605;BME280;11469;49.024;8.246;2022-12-07T07:20:18;100554.25;;;3.12;100.00
22605;BME280;11469;49.024;8.246;2022-12-07T07:22:44;100560.41;;;3.09;100.00
22605;BME280;11469;49.024;8.246;2022-12-07T07:25:09;100562.03;;;3.10;100.00
22605;BME280;11469;49.024;8.246;2022-12-07T07:27:35;100567.88;;;3.09;100.00
22605;BME280;11469;49.024;8.246;2022-12-07T07:30:00;100564.00;;;3.10;100.00
22605;BME280;11469;49.024;8.246;2022-12-07T07:32:26;100558.25;;;3.06;100.00
22605;BME280;11469;49.024;8.246;2022-12-07T07:34:52;100564.50;;;3.12;100.00
22605;BME280;11469;49.024;8.246;2022-12-07T07:37:17;100565.13;;;3.09;100.00
22605;BME280;11469;49.024;8.246;2022-12-07T07:39:43;100570.88;;;3.12;100.00
22605;BME280;11469;49.024;8.246;2022-12-07T07:42:08;100574.66;;;3.16;100.00
22605;BME280;11469;49.024;8.246;2022-12-07T07:44:34;100575.78;;;3.15;100.00
22605;BME280;11469;49.024;8.246;2022-12-07T07:47:00;100578.56;;;3.15;100.00
22605;BME280;11469;49.024;8.246;2022-12-07T07:49:26;100582.06;;;3.21;100.00
22605;BME280;11469;49.024;8.246;2022-12-07T07:51:51;100585.34;;;3.23;100.00
22605;BME280;11469;49.024;8.246;2022-12-07T07:54:17;100591.38;;;3.25;100.00
22605;BME280;11469;49.024;8.246;2022-12-07T07:56:42;100585.03;;;3.24;100.00
22605;BME280;11469;49.024;8.246;2022-12-07T07:59:08;100586.66;;;3.25;100.00
22605;BME280;11469;49.024;8.246;2022-12-07T08:01:33;100579.69;;;3.28;100.00
22605;BME280;11469;49.024;8.246;2022-12-07T08:03:59;100588.19;;;3.31;100.00
22605;BME280;11469;49.024;8.246;2022-12-07T08:06:25;100587.25;;;3.36;100.00
22605;BME280;11469;49.024;8.246;2022-12-07T08:08:51;100589.19;;;3.36;100.00
22605;BME280;11469;49.024;8.246;2022-12-07T08:11:17;100589.63;;;3.43;100.00
22605;BME280;11469;49.024;8.246;2022-12-07T08:13:45;100596.78;;;3.44;100.00
22605;BME280;11469;49.024;8.246;2022-12-07T08:16:12;100601.72;;;3.47;100.00
22605;BME280;11469;49.024;8.246;2022-12-07T08:18:39;100605.94;;;3.44;100.00
22605;BME280;11469;49.024;8.246;2022-12-07T08:21:05;100610.53;;;3.49;100.00
22605;BME280;11469;49.024;8.246;2022-12-07T08:23:31;100605.81;;;3.49;100.00
22605;BME280;11469;49.024;8.246;2022-12-07T08:26:04;100615.78;;;3.50;100.00
22605;BME280;11469;49.024;8.246;2022-12-07T08:28:30;100606.34;;;3.51;100.00
22605;BME280;11469;49.024;8.246;2022-12-07T08:31:03;100611.06;;;3.51;100.00
22605;BME280;11469;49.024;8.246;2022-12-07T08:33:29;100605.81;;;3.49;100.00
22605;BME280;11469;49.024;8.246;2022-12-07T08:36:06;100614.97;;;3.50;100.00
22605;BME280;11469;49.024;8.246;2022-12-07T08:38:36;100609.94;;;3.52;100.00
22605;BME280;11469;49.024;8.246;2022-12-07T08:41:02;100620.72;;;3.53;100.00
22605;BME280;11469;49.024;8.246;2022-12-07T08:43:28;100622.84;;;3.56;100.00
22605;BME280;11469;49.024;8.246;2022-12-07T08:46:06;100620.91;;;3.57;100.00
22605;BME280;11469;49.024;8.246;2022-12-07T08:48:33;100617.00;;;3.58;100.00
22605;BME280;11469;49.024;8.246;2022-12-07T08:51:01;100626.34;;;3.62;100.00
22605;BME280;11469;49.024;8.246;2022-12-07T08:53:27;100625.22;;;3.63;100.00
22605;BME280;11469;49.024;8.246;2022-12-07T08:55:53;100627.69;;;3.64;100.00
22605;BME280;11469;49.024;8.246;2022-12-07T08:58:18;100622.53;;;3.72;100.00
22605;BME280;11469;49.024;8.246;2022-12-07T09:00:44;100615.88;;;3.73;100.00
22605;BME280;11469;49.024;8.246;2022-12-07T09:03:09;100615.25;;;3.76;100.00
22605;BME280;11469;49.024;8.246;2022-12-07T09:05:34;100608.22;;;3.78;100.00
22605;BME280;11469;49.024;8.246;2022-12-07T09:08:01;100615.75;;;3.78;100.00
22605;BME280;11469;49.024;8.246;2022-12-07T09:10:28;100609.03;;;3.79;100.00
22605;BME280;11469;49.024;8.246;2022-12-07T09:12:54;100613.78;;;3.78;100.00
22605;BME280;11469;49.024;8.246;2022-12-07T09:15:20;100614.47;;;3.84;100.00
22605;BME280;11469;49.024;8.246;2022-12-07T09:17:45;100605.00;;;3.98;100.00
22605;BME280;11469;49.024;8.246;2022-12-07T09:20:11;100613.00;;;4.00;100.00
22605;BME280;11469;49.024;8.246;2022-12-07T09:22:37;100608.16;;;4.06;100.00
22605;BME280;11469;49.024;8.246;2022-12-07T09:25:03;100617.50;;;4.10;100.00
22605;BME280;11469;49.024;8.246;2022-12-07T09:27:30;100610.06;;;4.19;100.00
22605;BME280;11469;49.024;8.246;2022-12-07T09:29:55;100612.53;;;4.20;100.00
22605;BME280;11469;49.024;8.246;2022-12-07T09:32:20;100618.91;;;4.21;100.00
22605;BME280;11469;49.024;8.246;2022-12-07T09:34:46;100614.81;;;4.18;100.00
22605;BME280;11469;49.024;8.246;2022-12-07T09:37:11;100618.91;;;4.21;100.00
22605;BME280;11469;49.024;8.246;2022-12-07T09:39:40;100615.50;;;4.24;100.00
22605;BME280;11469;49.024;8.246;2022-12-07T09:42:07;100616.19;;;4.29;100.00
22605;BME280;11469;49.024;8.246;2022-12-07T09:44:34;100607.66;;;4.26;99.68
22605;BME280;11469;49.024;8.246;2022-12-07T09:47:00;100607.09;;;4.38;99.85
22605;BME280;11469;49.024;8.246;2022-12-07T09:49:29;100607.91;;;4.38;99.21
22605;BME280;11469;49.024;8.246;2022-12-07T09:52:25;100608.19;;;4.50;98.44
22605;BME280;11469;49.024;8.246;2022-12-07T09:54:52;100606.53;;;4.49;98.14
22605;BME280;11469;49.024;8.246;2022-12-07T09:57:22;100607.22;;;4.55;98.06
22605;BME280;11469;49.024;8.246;2022-12-07T09:59:50;100605.28;;;4.55;96.92
22605;BME280;11469;49.024;8.246;2022-12-07T10:04:52;100595.88;;;4.65;96.78
22605;BME280;11469;49.024;8.246;2022-12-07T10:07:17;100599.09;;;4.58;96.50
22605;BME280;11469;49.024;8.246;2022-12-07T10:09:42;100600.41;;;4.61;96.02
22605;BME280;11469;49.024;8.246;2022-12-07T10:12:12;100591.91;;;4.57;96.00
22605;BME280;11469;49.024;8.246;2022-12-07T10:14:40;100587.16;;;4.58;95.12
22605;BME280;11469;49.024;8.246;2022-12-07T10:22:33;100582.63;;;4.62;95.62
22605;BME280;11469;49.024;8.246;2022-12-07T10:25:08;100583.31;;;4.68;94.63
22605;BME280;11469;49.024;8.246;2022-12-07T10:27:34;100588.22;;;4.71;95.27
22605;BME280;11469;49.024;8.246;2022-12-07T10:29:59;100580.22;;;4.69;95.12
22605;BME280;11469;49.024;8.246;2022-12-07T10:32:34;100582.00;;;4.74;95.05
22605;BME280;11469;49.024;8.246;2022-12-07T10:35:26;100582.81;;;4.74;93.80
22605;BME280;11469;49.024;8.246;2022-12-07T10:37:53;100582.19;;;4.77;93.76
22605;BME280;11469;49.024;8.246;2022-12-07T10:43:17;100574.22;;;4.84;94.70
22605;BME280;11469;49.024;8.246;2022-12-07T10:46:07;100579.88;;;5.02;98.54
22605;BME280;11469;49.024;8.246;2022-12-07T10:57:55;100560.78;;;5.09;94.44
22605;BME280;11469;49.024;8.246;2022-12-07T11:00:08;100559.66;;;5.10;93.90
22605;BME280;11469;49.024;8.246;2022-12-07T11:05:27;100549.03;;;5.12;93.43
22605;BME280;11469;49.024;8.246;2022-12-07T11:21:58;100530.44;;;5.29;93.10
22605;BME280;11469;49.024;8.246;2022-12-07T11:24:53;100518.66;;;5.32;92.79
22605;BME280;11469;49.024;8.246;2022-12-07T11:35:31;100521.97;;;5.43;92.66
22605;BME280;11469;49.024;8.246;2022-12-07T11:38:07;100520.31;;;5.42;92.90
22605;BME280;11469;49.024;8.246;2022-12-07T11:40:36;100518.69;;;5.41;93.75
22605;BME280;11469;49.024;8.246;2022-12-07T11:43:22;100514.59;;;5.47;93.69
22605;BME280;11469;49.024;8.246;2022-12-07T11:46:12;100513.47;;;5.48;93.56
22605;BME280;11469;49.024;8.246;2022-12-07T11:48:47;100509.72;;;5.53;93.25
22605;BME280;11469;49.024;8.246;2022-12-07T11:51:16;100509.56;;;5.58;93.32
22605;BME280;11469;49.024;8.246;2022-12-07T11:56:16;100495.31;;;5.59;92.81
22605;BME280;11469;49.024;8.246;2022-12-07T12:01:48;100501.56;;;5.65;93.67
22605;BME280;11469;49.024;8.246;2022-12-07T12:07:21;100495.47;;;5.80;93.27
22605;BME280;11469;49.024;8.246;2022-12-07T12:10:02;100496.13;;;5.77;93.04
22605;BME280;11469;49.024;8.246;2022-12-07T12:13:02;100491.38;;;5.69;93.34
22605;BME280;11469;49.024;8.246;2022-12-07T12:18:25;100492.06;;;5.66;94.73
22605;BME280;11469;49.024;8.246;2022-12-07T12:21:00;100491.56;;;5.64;93.66
22605;BME280;11469;49.024;8.246;2022-12-07T12:23:36;100487.00;;;5.59;94.85
22605;BME280;11469;49.024;8.246;2022-12-07T12:26:05;100474.41;;;5.62;95.14
22605;BME280;11469;49.024;8.246;2022-12-07T12:28:52;100481.28;;;5.64;94.97
22605;BME280;11469;49.024;8.246;2022-12-07T12:33:53;100474.41;;;5.62;95.36
22605;BME280;11469;49.024;8.246;2022-12-07T12:44:01;100469.81;;;5.57;93.92
22605;BME280;11469;49.024;8.246;2022-12-07T12:51:56;100478.16;;;5.57;95.01
22605;BME280;11469;49.024;8.246;2022-12-07T12:54:28;100472.59;;;5.57;93.86
22605;BME280;11469;49.024;8.246;2022-12-07T13:02:30;100460.66;;;5.65;94.93
22605;BME280;11469;49.024;8.246;2022-12-07T13:07:52;100452.66;;;5.64;94.48
22605;BME280;11469;49.024;8.246;2022-12-07T13:26:23;100431.88;;;5.53;94.98
22605;BME280;11469;49.024;8.246;2022-12-07T13:28:52;100427.28;;;5.48;95.19
22605;BME280;11469;49.024;8.246;2022-12-07T13:31:57;100430.41;;;5.47;96.24
22605;BME280;11469;49.024;8.246;2022-12-07T13:34:34;100424.34;;;5.45;95.47
22605;BME280;11469;49.024;8.246;2022-12-07T13:37:12;100423.69;;;5.39;95.10
22605;BME280;11469;49.024;8.246;2022-12-07T13:39:54;100419.94;;;5.44;96.48
22605;BME280;11469;49.024;8.246;2022-12-07T13:42:29;100421.22;;;5.46;95.17
22605;BME280;11469;49.024;8.246;2022-12-07T13:44:56;100416.81;;;5.45;95.07
22605;BME280;11469;49.024;8.246;2022-12-07T13:47:41;100429.25;;;5.39;95.30
22605;BME280;11469;49.024;8.246;2022-12-07T13:52:55;100425.47;;;5.35;95.81
22605;BME280;11469;49.024;8.246;2022-12-07T13:55:20;100425.66;;;5.39;95.70
22605;BME280;11469;49.024;8.246;2022-12-07T13:57:49;100421.22;;;5.38;95.57
22605;BME280;11469;49.024;8.246;2022-12-07T14:00:18;100414.84;;;5.37;95.20
22605;BME280;11469;49.024;8.246;2022-12-07T14:05:41;100412.91;;;5.38;95.00
22605;BME280;11469;49.024;8.246;2022-12-07T14:10:55;100417.47;;;5.25;95.36
22605;BME280;11469;49.024;8.246;2022-12-07T14:13:38;100423.34;;;5.23;95.43
22605;BME280;11469;49.024;8.246;2022-12-07T14:18:43;100429.56;;;5.29;95.68
22605;BME280;11469;49.024;8.246;2022-12-07T14:23:34;100431.19;;;5.21;95.40
22605;BME280;11469;49.024;8.246;2022-12-07T14:26:07;100423.34;;;5.23;95.92
22605;BME280;11469;49.024;8.246;2022-12-07T14:28:36;100429.72;;;5.24;95.76
22605;BME280;11469;49.024;8.246;2022-12-07T14:31:02;100424.34;;;5.19;96.76
22605;BME280;11469;49.024;8.246;2022-12-07T14:33:28;100428.59;;;5.16;96.20
22605;BME280;11469;49.024;8.246;2022-12-07T14:35:53;100429.41;;;5.17;96.85
22605;BME280;11469;49.024;8.246;2022-12-07T14:38:24;100427.09;;;5.10;96.00
22605;BME280;11469;49.024;8.246;2022-12-07T14:40:51;100425.97;;;5.11;96.25
22605;BME280;11469;49.024;8.246;2022-12-07T14:43:18;100425.63;;;5.04;96.99
22605;BME280;11469;49.024;8.246;2022-12-07T14:45:44;100431.31;;;4.99;97.40
22605;BME280;11469;49.024;8.246;2022-12-07T14:48:11;100418.59;;;4.98;96.99
22605;BME280;11469;49.024;8.246;2022-12-07T14:50:49;100421.50;;;4.93;97.76
22605;BME280;11469;49.024;8.246;2022-12-07T14:53:17;100426.75;;;4.94;97.84
22605;BME280;11469;49.024;8.246;2022-12-07T14:55:43;100428.38;;;4.95;98.43
22605;BME280;11469;49.024;8.246;2022-12-07T14:58:16;100427.06;;;4.93;98.00
22605;BME280;11469;49.024;8.246;2022-12-07T15:00:42;100416.91;;;4.88;97.92
22605;BME280;11469;49.024;8.246;2022-12-07T15:03:08;100428.69;;;4.85;98.42
22605;BME280;11469;49.024;8.246;2022-12-07T15:05:34;100415.94;;;4.93;98.34
22605;BME280;11469;49.024;8.246;2022-12-07T15:07:59;100421.00;;;4.91;98.29
22605;BME280;11469;49.024;8.246;2022-12-07T15:10:29;100414.78;;;4.85;98.67
22605;BME280;11469;49.024;8.246;2022-12-07T15:13:01;100422.28;;;4.76;99.40
22605;BME280;11469;49.024;8.246;2022-12-07T15:15:50;100415.41;;;4.74;99.80
22605;BME280;11469;49.024;8.246;2022-12-07T15:18:16;100418.19;;;4.74;99.71
22605;BME280;11469;49.024;8.246;2022-12-07T15:20:42;100411.34;;;4.71;99.76
22605;BME280;11469;49.024;8.246;2022-12-07T15:23:08;100415.75;;;4.72;99.88
22605;BME280;11469;49.024;8.246;2022-12-07T15:25:33;100418.53;;;4.72;100.00